sensor_id;sensor_type;location;lat;lon;timestamp;pressure;altitude;pressure_sealevel;temperature;humidity
5484;BME280;2764;48.794;8.326;2022-08-19T00:00:39;99505.59;;;19.81;100.00
5484;BME280;2764;48.794;8.326;2022-08-19T00:01:43;99504.66;;;19.82;100.00
5484;BME280;2764;48.794;8.326;2022-08-19T00:02:53;99498.50;;;19.81;100.00
5484;BME280;2764;48.794;8.326;2022-08-19T00:03:58;99504.66;;;19.82;100.00
5484;BME280;2764;48.794;8.326;2022-08-19T00:05:01;99501.16;;;19.81;100.00
5484;BME280;2764;48.794;8.326;2022-08-19T00:06:03;99495.00;;;19.81;100.00
5484;BME280;2764;48.794;8.326;2022-08-19T00:07:05;99495.00;;;19.81;100.00
5484;BME280;2764;48.794;8.326;2022-08-19T00:08:07;99495.13;;;19.79;100.00
5484;BME280;2764;48.794;8.326;2022-08-19T00:09:11;99488.00;;;19.80;100.00
5484;BME280;2764;48.794;8.326;2022-08-19T00:10:14;99493.44;;;19.78;100.00
5484;BME280;2764;48.794;8.326;2022-08-19T00:11:17;99489.50;;;19.73;100.00
5484;BME280;2764;48.794;8.326;2022-08-19T00:12:27;99492.56;;;19.68;100.00
5484;BME280;2764;48.794;8.326;2022-08-19T00:13:28;99494.53;;;19.76;100.00
5484;BME280;2764;48.794;8.326;2022-08-19T00:14:30;99502.78;;;19.73;100.00
5484;BME280;2764;48.794;8.326;2022-08-19T00:15:33;99493.75;;;19.64;100.00
5484;BME280;2764;48.794;8.326;2022-08-19T00:16:35;99500.38;;;19.70;100.00
5484;BME280;2764;48.794;8.326;2022-08-19T00:17:38;99501.22;;;19.70;100.00
5484;BME280;2764;48.794;8.326;2022-08-19T00:18:42;99506.53;;;19.70;100.00
5484;BME280;2764;48.794;8.326;2022-08-19T00:19:43;99504.59;;;19.72;100.00
5484;BME280;2764;48.794;8.326;2022-08-19T00:20:45;99495.78;;;19.72;100.00
5484;BME280;2764;48.794;8.326;2022-08-19T00:21:47;99519.50;;;19.73;100.00
5484;BME280;2764;48.794;8.326;2022-08-19T00:22:49;99493.72;;;19.75;100.00
5484;BME280;2764;48.794;8.326;2022-08-19T00:23:50;99497.47;;;19.73;100.00
5484;BME280;2764;48.794;8.326;2022-08-19T00:24:52;99493.31;;;19.80;100.00
5484;BME280;2764;48.794;8.326;2022-08-19T00:25:55;99495.84;;;19.81;100.00
5484;BME280;2764;48.794;8.326;2022-08-19T00:26:57;99497.66;;;19.81;100.00
5484;BME280;2764;48.794;8.326;2022-08-19T00:28:19;99491.63;;;19.79;100.00
5484;BME280;2764;48.794;8.326;2022-08-19T00:29:23;99485.00;;;19.73;100.00
5484;BME280;2764;48.794;8.326;2022-08-19T00:30:25;99486.72;;;19.74;100.00
5484;BME280;2764;48.794;8.326;2022-08-19T00:31:28;99493.31;;;19.80;100.00
5484;BME280;2764;48.794;8.326;2022-08-19T00:32:30;99495.00;;;19.81;100.00
5484;BME280;2764;48.794;8.326;2022-08-19T00:33:33;99492.34;;;19.81;100.00
5484;BME280;2764;48.794;8.326;2022-08-19T00:34:35;99504.50;;;19.83;100.00
5484;BME280;2764;48.794;8.326;2022-08-19T00:35:37;99498.25;;;19.84;100.00
5484;BME280;2764;48.794;8.326;2022-08-19T00:36:41;99503.41;;;19.86;100.00
5484;BME280;2764;48.794;8.326;2022-08-19T00:37:42;99502.44;;;19.87;100.00
5484;BME280;2764;48.794;8.326;2022-08-19T00:38:45;99510.28;;;19.88;100.00
5484;BME280;2764;48.794;8.326;2022-08-19T00:39:47;99492.34;;;19.81;100.00
5484;BME280;2764;48.794;8.326;2022-08-19T00:40:49;99497.00;;;19.88;100.00
5484;BME280;2764;48.794;8.326;2022-08-19T00:41:51;99451.00;;;19.57;100.00
5484;BME280;2764;48.794;8.326;2022-08-19T00:42:53;99491.94;;;19.85;100.00
5484;BME280;2764;48.794;8.326;2022-08-19T00:45:09;99479.66;;;19.84;100.00
5484;BME280;2764;48.794;8.326;2022-08-19T00:46:11;99477.00;;;19.84;100.00
5484;BME280;2764;48.794;8.326;2022-08-19T00:47:13;99464.69;;;19.83;100.00
5484;BME280;2764;48.794;8.326;2022-08-19T00:48:17;99462.63;;;19.87;100.00
5484;BME280;2764;48.794;8.326;2022-08-19T00:49:51;99453.13;;;19.84;100.00
5484;BME280;2764;48.794;8.326;2022-08-19T00:50:53;99457.88;;;19.90;100.00
5484;BME280;2764;48.794;8.326;2022-08-19T00:52:02;99466.69;;;19.91;100.00
5484;BME280;2764;48.794;8.326;2022-08-19T00:53:04;99459.97;;;19.87;100.00
5484;BME280;2764;48.794;8.326;2022-08-19T00:54:05;99467.34;;;19.83;100.00
5484;BME280;2764;48.794;8.326;2022-08-19T00:55:08;99473.66;;;19.82;100.00
5484;BME280;2764;48.794;8.326;2022-08-19T00:56:12;99473.66;;;19.82;100.00
5484;BME280;2764;48.794;8.326;2022-08-19T00:57:17;99485.94;;;19.83;100.00
5484;BME280;2764;48.794;8.326;2022-08-19T00:58:22;99485.78;;;19.85;100.00
5484;BME280;2764;48.794;8.326;2022-08-19T00:59:27;99481.00;;;19.79;100.00
5484;BME280;2764;48.794;8.326;2022-08-19T01:00:49;99489.19;;;19.87;100.00
5484;BME280;2764;48.794;8.326;2022-08-19T01:01:50;99492.78;;;19.86;100.00
5484;BME280;2764;48.794;8.326;2022-08-19T01:02:53;99489.44;;;19.84;100.00
5484;BME280;2764;48.794;8.326;2022-08-19T01:03:55;99490.38;;;19.83;100.00
5484;BME280;2764;48.794;8.326;2022-08-19T01:05:02;99492.34;;;19.81;100.00
5484;BME280;2764;48.794;8.326;2022-08-19T01:06:05;99484.19;;;19.73;100.00
5484;BME280;2764;48.794;8.326;2022-08-19T01:07:07;99493.44;;;19.78;100.00
5484;BME280;2764;48.794;8.326;2022-08-19T01:08:16;99484.75;;;19.76;100.00
5484;BME280;2764;48.794;8.326;2022-08-19T01:09:19;99489.94;;;19.78;100.00
5484;BME280;2764;48.794;8.326;2022-08-19T01:10:26;99496.09;;;19.78;100.00
5484;BME280;2764;48.794;8.326;2022-08-19T01:11:35;99499.59;;;19.79;100.00
5484;BME280;2764;48.794;8.326;2022-08-19T01:12:38;99474.94;;;19.67;100.00
5484;BME280;2764;48.794;8.326;2022-08-19T01:13:40;99492.59;;;19.78;100.00
5484;BME280;2764;48.794;8.326;2022-08-19T01:14:50;99492.22;;;19.82;100.00
5484;BME280;2764;48.794;8.326;2022-08-19T01:16:03;99492.88;;;19.75;100.00
5484;BME280;2764;48.794;8.326;2022-08-19T01:17:07;99476.88;;;19.86;100.00
5484;BME280;2764;48.794;8.326;2022-08-19T01:18:12;99474.78;;;19.89;100.00
5484;BME280;2764;48.794;8.326;2022-08-19T01:19:41;99474.53;;;19.92;100.00
5484;BME280;2764;48.794;8.326;2022-08-19T01:20:45;99468.38;;;19.92;100.00
5484;BME280;2764;48.794;8.326;2022-08-19T01:22:02;99454.22;;;19.82;100.00
5484;BME280;2764;48.794;8.326;2022-08-19T01:23:17;99477.63;;;19.97;100.00
5484;BME280;2764;48.794;8.326;2022-08-19T01:24:18;99479.44;;;19.97;100.00
5484;BME280;2764;48.794;8.326;2022-08-19T01:25:24;99481.53;;;19.93;100.00
5484;BME280;2764;48.794;8.326;2022-08-19T01:26:29;99478.88;;;19.93;100.00
5484;BME280;2764;48.794;8.326;2022-08-19T01:27:44;99479.97;;;19.91;100.00
5484;BME280;2764;48.794;8.326;2022-08-19T01:28:48;99481.06;;;19.88;100.00
5484;BME280;2764;48.794;8.326;2022-08-19T01:29:52;99475.63;;;19.90;100.00
5484;BME280;2764;48.794;8.326;2022-08-19T01:30:54;99474.22;;;19.86;100.00
5484;BME280;2764;48.794;8.326;2022-08-19T01:31:57;99478.28;;;19.90;100.00
5484;BME280;2764;48.794;8.326;2022-08-19T01:32:59;99480.09;;;19.89;100.00
5484;BME280;2764;48.794;8.326;2022-08-19T01:34:02;99482.88;;;19.88;100.00
5484;BME280;2764;48.794;8.326;2022-08-19T01:35:05;99492.66;;;19.87;100.00
5484;BME280;2764;48.794;8.326;2022-08-19T01:36:10;99478.41;;;19.88;100.00
5484;BME280;2764;48.794;8.326;2022-08-19T01:37:12;99474.06;;;19.87;100.00
5484;BME280;2764;48.794;8.326;2022-08-19T01:38:26;99479.50;;;19.86;100.00
5484;BME280;2764;48.794;8.326;2022-08-19T01:39:28;99473.25;;;19.87;100.00
5484;BME280;2764;48.794;8.326;2022-08-19T01:40:31;99470.59;;;19.87;100.00
5484;BME280;2764;48.794;8.326;2022-08-19T01:41:34;99469.59;;;19.88;100.00
5484;BME280;2764;48.794;8.326;2022-08-19T01:42:36;99465.28;;;19.87;100.00
5484;BME280;2764;48.794;8.326;2022-08-19T01:43:38;99477.44;;;19.89;100.00
5484;BME280;2764;48.794;8.326;2022-08-19T01:45:00;99477.72;;;19.86;100.00
5484;BME280;2764;48.794;8.326;2022-08-19T01:46:02;99462.44;;;19.79;100.00
5484;BME280;2764;48.794;8.326;2022-08-19T01:47:04;99478.09;;;19.82;100.00
5484;BME280;2764;48.794;8.326;2022-08-19T01:48:07;99487.63;;;19.84;100.00
5484;BME280;2764;48.794;8.326;2022-08-19T01:49:09;99485.06;;;19.83;100.00
5484;BME280;2764;48.794;8.326;2022-08-19T01:50:12;99495.69;;;19.83;100.00
5484;BME280;2764;48.794;8.326;2022-08-19T01:51:14;99477.50;;;19.78;100.00
5484;BME280;2764;48.794;8.326;2022-08-19T01:52:16;99478.66;;;19.85;100.00
5484;BME280;2764;48.794;8.326;2022-08-19T01:53:18;99481.47;;;19.84;100.00
5484;BME280;2764;48.794;8.326;2022-08-19T01:54:21;99476.41;;;19.81;100.00
5484;BME280;2764;48.794;8.326;2022-08-19T01:55:28;99479.50;;;19.86;100.00
5484;BME280;2764;48.794;8.326;2022-08-19T01:56:30;99477.56;;;19.88;100.00
5484;BME280;2764;48.794;8.326;2022-08-19T01:57:31;99469.16;;;19.83;100.00
5484;BME280;2764;48.794;8.326;2022-08-19T01:58:41;99473.97;;;19.89;100.00
5484;BME280;2764;48.794;8.326;2022-08-19T01:59:47;99478.03;;;19.93;100.00
5484;BME280;2764;48.794;8.326;2022-08-19T02:00:48;99473.41;;;19.95;100.00
5484;BME280;2764;48.794;8.326;2022-08-19T02:01:50;99469.66;;;19.97;100.00
5484;BME280;2764;48.794;8.326;2022-08-19T02:02:52;99473.72;;;20.01;100.00
5484;BME280;2764;48.794;8.326;2022-08-19T02:03:54;99471.78;;;20.03;100.00
5484;BME280;2764;48.794;8.326;2022-08-19T02:04:58;99475.13;;;20.05;100.00
5484;BME280;2764;48.794;8.326;2022-08-19T02:06:02;99494.56;;;20.06;100.00
5484;BME280;2764;48.794;8.326;2022-08-19T02:07:04;99475.13;;;20.05;100.00
5484;BME280;2764;48.794;8.326;2022-08-19T02:08:10;99484.94;;;20.05;100.00
5484;BME280;2764;48.794;8.326;2022-08-19T02:09:11;99485.03;;;20.03;100.00
5484;BME280;2764;48.794;8.326;2022-08-19T02:10:19;99490.25;;;20.05;100.00
5484;BME280;2764;48.794;8.326;2022-08-19T02:11:26;99479.63;;;20.05;100.00
5484;BME280;2764;48.794;8.326;2022-08-19T02:12:29;99481.44;;;20.04;100.00
5484;BME280;2764;48.794;8.326;2022-08-19T02:13:32;99476.78;;;19.97;100.00
5484;BME280;2764;48.794;8.326;2022-08-19T02:14:35;99478.31;;;19.99;100.00
5484;BME280;2764;48.794;8.326;2022-08-19T02:15:37;99481.84;;;20.00;100.00
5484;BME280;2764;48.794;8.326;2022-08-19T02:16:39;99478.19;;;20.01;100.00
5484;BME280;2764;48.794;8.326;2022-08-19T02:17:41;99475.66;;;19.99;100.00
5484;BME280;2764;48.794;8.326;2022-08-19T02:18:43;99476.53;;;20.00;100.00
5484;BME280;2764;48.794;8.326;2022-08-19T02:19:45;99473.88;;;20.00;100.00
5484;BME280;2764;48.794;8.326;2022-08-19T02:20:47;99472.06;;;20.00;100.00
5484;BME280;2764;48.794;8.326;2022-08-19T02:21:49;99474.00;;;19.98;100.00
5484;BME280;2764;48.794;8.326;2022-08-19T02:22:50;99459.97;;;19.87;100.00
5484;BME280;2764;48.794;8.326;2022-08-19T02:23:53;99472.56;;;19.94;100.00
5484;BME280;2764;48.794;8.326;2022-08-19T02:24:55;99468.25;;;19.93;100.00
5484;BME280;2764;48.794;8.326;2022-08-19T02:25:57;99471.72;;;19.94;100.00
5484;BME280;2764;48.794;8.326;2022-08-19T02:26:58;99467.41;;;19.93;100.00
5484;BME280;2764;48.794;8.326;2022-08-19T02:28:00;99465.69;;;19.92;100.00
5484;BME280;2764;48.794;8.326;2022-08-19T02:29:02;99469.34;;;19.91;100.00
5484;BME280;2764;48.794;8.326;2022-08-19T02:30:07;99475.75;;;19.88;100.00
5484;BME280;2764;48.794;8.326;2022-08-19T02:31:17;99476.72;;;19.87;100.00
5484;BME280;2764;48.794;8.326;2022-08-19T02:32:20;99473.66;;;19.82;100.00
5484;BME280;2764;48.794;8.326;2022-08-19T02:33:21;99483.41;;;19.82;100.00
5484;BME280;2764;48.794;8.326;2022-08-19T02:34:23;99473.19;;;19.77;100.00
5484;BME280;2764;48.794;8.326;2022-08-19T02:35:26;99472.47;;;19.75;100.00
5484;BME280;2764;48.794;8.326;2022-08-19T02:36:28;99487.88;;;19.81;100.00
5484;BME280;2764;48.794;8.326;2022-08-19T02:37:30;99474.00;;;19.78;100.00
5484;BME280;2764;48.794;8.326;2022-08-19T02:38:51;99434.91;;;19.49;100.00
5484;BME280;2764;48.794;8.326;2022-08-19T02:39:55;99480.31;;;19.77;100.00
5484;BME280;2764;48.794;8.326;2022-08-19T02:41:00;99479.31;;;19.78;100.00
5484;BME280;2764;48.794;8.326;2022-08-19T02:42:03;99469.09;;;19.73;100.00
5484;BME280;2764;48.794;8.326;2022-08-19T02:43:07;99427.59;;;19.42;100.00
5484;BME280;2764;48.794;8.326;2022-08-19T02:44:09;99470.47;;;19.68;100.00
5484;BME280;2764;48.794;8.326;2022-08-19T02:45:32;99478.59;;;19.76;100.00
5484;BME280;2764;48.794;8.326;2022-08-19T02:46:34;99476.66;;;19.78;100.00
5484;BME280;2764;48.794;8.326;2022-08-19T02:47:37;99473.19;;;19.77;100.00
5484;BME280;2764;48.794;8.326;2022-08-19T02:48:42;99478.34;;;19.79;100.00
5484;BME280;2764;48.794;8.326;2022-08-19T02:49:45;99474.59;;;19.81;100.00
5484;BME280;2764;48.794;8.326;2022-08-19T02:50:48;99467.50;;;19.82;100.00
5484;BME280;2764;48.794;8.326;2022-08-19T02:51:54;99474.47;;;19.83;100.00
5484;BME280;2764;48.794;8.326;2022-08-19T02:52:56;99468.34;;;19.82;100.00
5484;BME280;2764;48.794;8.326;2022-08-19T02:53:58;99479.78;;;19.83;100.00
5484;BME280;2764;48.794;8.326;2022-08-19T02:55:01;99470.00;;;19.83;100.00
5484;BME280;2764;48.794;8.326;2022-08-19T02:56:06;99476.16;;;19.84;100.00
5484;BME280;2764;48.794;8.326;2022-08-19T02:57:08;99471.81;;;19.83;100.00
5484;BME280;2764;48.794;8.326;2022-08-19T02:58:10;99482.31;;;19.84;100.00
5484;BME280;2764;48.794;8.326;2022-08-19T02:59:11;99480.75;;;19.82;100.00
5484;BME280;2764;48.794;8.326;2022-08-19T03:00:14;99481.59;;;19.82;100.00
5484;BME280;2764;48.794;8.326;2022-08-19T03:02:23;99469.84;;;19.75;100.00
5484;BME280;2764;48.794;8.326;2022-08-19T03:03:25;99474.16;;;19.76;100.00
5484;BME280;2764;48.794;8.326;2022-08-19T03:04:26;99479.22;;;19.79;100.00
5484;BME280;2764;48.794;8.326;2022-08-19T03:05:28;99474.00;;;19.78;100.00
5484;BME280;2764;48.794;8.326;2022-08-19T03:06:50;99481.97;;;19.78;100.00
5484;BME280;2764;48.794;8.326;2022-08-19T03:07:52;99486.47;;;19.77;100.00
5484;BME280;2764;48.794;8.326;2022-08-19T03:08:53;99483.91;;;19.76;100.00
5484;BME280;2764;48.794;8.326;2022-08-19T03:09:55;99481.25;;;19.76;100.00
5484;BME280;2764;48.794;8.326;2022-08-19T03:10:56;99484.91;;;19.75;100.00
5484;BME280;2764;48.794;8.326;2022-08-19T03:11:58;99475.25;;;19.74;100.00
5484;BME280;2764;48.794;8.326;2022-08-19T03:13:00;99474.16;;;19.76;100.00
5484;BME280;2764;48.794;8.326;2022-08-19T03:14:06;99462.38;;;19.69;100.00
5484;BME280;2764;48.794;8.326;2022-08-19T03:15:08;99474.47;;;19.83;100.00
5484;BME280;2764;48.794;8.326;2022-08-19T03:16:12;99483.13;;;19.85;100.00
5484;BME280;2764;48.794;8.326;2022-08-19T03:17:14;99482.88;;;19.88;100.00
5484;BME280;2764;48.794;8.326;2022-08-19T03:18:16;99482.72;;;19.89;100.00
5484;BME280;2764;48.794;8.326;2022-08-19T03:19:19;99476.72;;;19.87;100.00
5484;BME280;2764;48.794;8.326;2022-08-19T03:20:22;99481.63;;;19.92;100.00
5484;BME280;2764;48.794;8.326;2022-08-19T03:21:25;99484.28;;;19.92;100.00
5484;BME280;2764;48.794;8.326;2022-08-19T03:22:27;99483.31;;;19.93;100.00
5484;BME280;2764;48.794;8.326;2022-08-19T03:23:32;99483.31;;;19.93;100.00
5484;BME280;2764;48.794;8.326;2022-08-19T03:24:34;99485.00;;;19.94;100.00
5484;BME280;2764;48.794;8.326;2022-08-19T03:25:38;99489.50;;;19.93;100.00
5484;BME280;2764;48.794;8.326;2022-08-19T03:26:45;99473.97;;;19.89;100.00
5484;BME280;2764;48.794;8.326;2022-08-19T03:27:47;99484.19;;;19.93;100.00
5484;BME280;2764;48.794;8.326;2022-08-19T03:28:50;99480.69;;;19.93;100.00
5484;BME280;2764;48.794;8.326;2022-08-19T03:29:59;99481.53;;;19.93;100.00
5484;BME280;2764;48.794;8.326;2022-08-19T03:31:04;99482.34;;;19.94;100.00
5484;BME280;2764;48.794;8.326;2022-08-19T03:32:27;99483.06;;;19.96;100.00
5484;BME280;2764;48.794;8.326;2022-08-19T03:33:34;99483.31;;;19.93;100.00
5484;BME280;2764;48.794;8.326;2022-08-19T03:34:37;99486.25;;;19.90;100.00
5484;BME280;2764;48.794;8.326;2022-08-19T03:35:38;99489.03;;;19.88;100.00
5484;BME280;2764;48.794;8.326;2022-08-19T03:36:40;99490.69;;;19.89;100.00
5484;BME280;2764;48.794;8.326;2022-08-19T03:37:42;99491.44;;;19.91;100.00
5484;BME280;2764;48.794;8.326;2022-08-19T03:38:46;99455.25;;;19.70;100.00
5484;BME280;2764;48.794;8.326;2022-08-19T03:39:56;99488.63;;;19.93;100.00
5484;BME280;2764;48.794;8.326;2022-08-19T03:41:02;99451.59;;;19.61;100.00
5484;BME280;2764;48.794;8.326;2022-08-19T03:42:04;99496.84;;;19.90;100.00
5484;BME280;2764;48.794;8.326;2022-08-19T03:43:26;99489.03;;;19.88;100.00
5484;BME280;2764;48.794;8.326;2022-08-19T03:44:29;99494.19;;;19.90;100.00
5484;BME280;2764;48.794;8.326;2022-08-19T03:45:31;99485.47;;;19.57;100.00
5484;BME280;2764;48.794;8.326;2022-08-19T03:46:33;99498.81;;;19.88;100.00
5484;BME280;2764;48.794;8.326;2022-08-19T03:47:34;99502.44;;;19.87;100.00
5484;BME280;2764;48.794;8.326;2022-08-19T03:48:37;99493.63;;;19.86;100.00
5484;BME280;2764;48.794;8.326;2022-08-19T03:49:40;99463.41;;;19.57;100.00
5484;BME280;2764;48.794;8.326;2022-08-19T03:50:43;99499.91;;;19.85;100.00
5484;BME280;2764;48.794;8.326;2022-08-19T03:51:46;99488.72;;;19.82;100.00
5484;BME280;2764;48.794;8.326;2022-08-19T03:52:49;99484.50;;;19.79;100.00
5484;BME280;2764;48.794;8.326;2022-08-19T03:53:54;99497.94;;;19.87;100.00
5484;BME280;2764;48.794;8.326;2022-08-19T03:54:56;99491.22;;;19.83;100.00
5484;BME280;2764;48.794;8.326;2022-08-19T03:55:58;99492.22;;;19.82;100.00
5484;BME280;2764;48.794;8.326;2022-08-19T03:57:02;99489.81;;;19.79;100.00
5484;BME280;2764;48.794;8.326;2022-08-19T03:58:05;99485.06;;;19.83;100.00
5484;BME280;2764;48.794;8.326;2022-08-19T03:59:15;99491.50;;;19.80;100.00
5484;BME280;2764;48.794;8.326;2022-08-19T04:00:22;99487.16;;;19.79;100.00
5484;BME280;2764;48.794;8.326;2022-08-19T04:01:25;99497.06;;;19.77;100.00
5484;BME280;2764;48.794;8.326;2022-08-19T04:02:35;99489.22;;;19.76;100.00
5484;BME280;2764;48.794;8.326;2022-08-19T04:03:38;99486.56;;;19.76;100.00
5484;BME280;2764;48.794;8.326;2022-08-19T04:04:43;99486.72;;;19.74;100.00
5484;BME280;2764;48.794;8.326;2022-08-19T04:05:46;99497.19;;;19.76;100.00
5484;BME280;2764;48.794;8.326;2022-08-19T04:06:48;99505.16;;;19.76;100.00
5484;BME280;2764;48.794;8.326;2022-08-19T04:07:49;99464.34;;;19.46;100.00
5484;BME280;2764;48.794;8.326;2022-08-19T04:08:52;99494.53;;;19.76;100.00
5484;BME280;2764;48.794;8.326;2022-08-19T04:09:55;99501.78;;;19.74;100.00
5484;BME280;2764;48.794;8.326;2022-08-19T04:10:56;99511.56;;;19.73;100.00
5484;BME280;2764;48.794;8.326;2022-08-19T04:11:58;99508.34;;;19.70;100.00
5484;BME280;2764;48.794;8.326;2022-08-19T04:13:00;99508.47;;;19.68;100.00
5484;BME280;2764;48.794;8.326;2022-08-19T04:14:02;99491.50;;;19.59;100.00
5484;BME280;2764;48.794;8.326;2022-08-19T04:15:05;99504.84;;;19.69;100.00
5484;BME280;2764;48.794;8.326;2022-08-19T04:16:08;99504.97;;;19.68;100.00
5484;BME280;2764;48.794;8.326;2022-08-19T04:17:11;99508.47;;;19.68;100.00
5484;BME280;2764;48.794;8.326;2022-08-19T04:18:13;99497.91;;;19.57;100.00
5484;BME280;2764;48.794;8.326;2022-08-19T04:19:16;99508.00;;;19.63;100.00
5484;BME280;2764;48.794;8.326;2022-08-19T04:20:18;99510.78;;;19.61;100.00
5484;BME280;2764;48.794;8.326;2022-08-19T04:21:22;99510.78;;;19.61;100.00
5484;BME280;2764;48.794;8.326;2022-08-19T04:22:24;99508.41;;;19.58;100.00
5484;BME280;2764;48.794;8.326;2022-08-19T04:23:27;99510.47;;;19.55;100.00
5484;BME280;2764;48.794;8.326;2022-08-19T04:24:33;99512.00;;;19.57;100.00
5484;BME280;2764;48.794;8.326;2022-08-19T04:25:41;99505.03;;;19.56;100.00
5484;BME280;2764;48.794;8.326;2022-08-19T04:26:43;99507.81;;;19.55;100.00
5484;BME280;2764;48.794;8.326;2022-08-19T04:27:45;99504.34;;;19.54;100.00
5484;BME280;2764;48.794;8.326;2022-08-19T04:28:47;99502.50;;;19.55;100.00
5484;BME280;2764;48.794;8.326;2022-08-19T04:29:50;99498.28;;;19.52;100.00
5484;BME280;2764;48.794;8.326;2022-08-19T04:30:53;99496.75;;;19.50;100.00
5484;BME280;2764;48.794;8.326;2022-08-19T04:31:56;99490.16;;;19.44;100.00
5484;BME280;2764;48.794;8.326;2022-08-19T04:32:58;99496.75;;;19.50;100.00
5484;BME280;2764;48.794;8.326;2022-08-19T04:34:01;99488.44;;;19.43;100.00
5484;BME280;2764;48.794;8.326;2022-08-19T04:35:06;99495.78;;;19.51;100.00
5484;BME280;2764;48.794;8.326;2022-08-19T04:36:25;99507.09;;;19.53;100.00
5484;BME280;2764;48.794;8.326;2022-08-19T04:37:27;99506.38;;;19.51;100.00
5484;BME280;2764;48.794;8.326;2022-08-19T04:38:35;99506.38;;;19.51;100.00
5484;BME280;2764;48.794;8.326;2022-08-19T04:39:38;99509.03;;;19.51;100.00
5484;BME280;2764;48.794;8.326;2022-08-19T04:41:03;99508.09;;;19.52;100.00
5484;BME280;2764;48.794;8.326;2022-08-19T04:42:23;99497.34;;;19.53;100.00
5484;BME280;2764;48.794;8.326;2022-08-19T04:43:40;99496.38;;;19.54;100.00
5484;BME280;2764;48.794;8.326;2022-08-19T04:44:42;99499.84;;;19.55;100.00
5484;BME280;2764;48.794;8.326;2022-08-19T04:45:47;99496.63;;;19.51;100.00
5484;BME280;2764;48.794;8.326;2022-08-19T04:46:49;99499.03;;;19.54;100.00
5484;BME280;2764;48.794;8.326;2022-08-19T04:47:55;99501.94;;;19.51;100.00
5484;BME280;2764;48.794;8.326;2022-08-19T04:49:21;99506.72;;;19.57;100.00
5484;BME280;2764;48.794;8.326;2022-08-19T04:50:27;99509.97;;;19.61;100.00
5484;BME280;2764;48.794;8.326;2022-08-19T04:51:28;99516.81;;;19.64;100.00
5484;BME280;2764;48.794;8.326;2022-08-19T04:52:32;99522.94;;;19.64;100.00
5484;BME280;2764;48.794;8.326;2022-08-19T04:53:35;99520.75;;;19.69;100.00
5484;BME280;2764;48.794;8.326;2022-08-19T04:54:38;99525.66;;;19.74;100.00
5484;BME280;2764;48.794;8.326;2022-08-19T04:55:41;99535.31;;;19.75;100.00
5484;BME280;2764;48.794;8.326;2022-08-19T04:56:43;99534.34;;;19.76;100.00
5484;BME280;2764;48.794;8.326;2022-08-19T04:57:52;99560.50;;;19.80;100.00
5484;BME280;2764;48.794;8.326;2022-08-19T04:58:55;99533.69;;;19.83;100.00
5484;BME280;2764;48.794;8.326;2022-08-19T04:59:57;99536.09;;;19.86;100.00
5484;BME280;2764;48.794;8.326;2022-08-19T05:00:59;99537.66;;;19.89;100.00
5484;BME280;2764;48.794;8.326;2022-08-19T05:02:04;99537.38;;;19.92;100.00
5484;BME280;2764;48.794;8.326;2022-08-19T05:03:05;99528.31;;;19.94;100.00
5484;BME280;2764;48.794;8.326;2022-08-19T05:04:08;99543.03;;;19.98;100.00
5484;BME280;2764;48.794;8.326;2022-08-19T05:05:10;99525.25;;;19.99;100.00
5484;BME280;2764;48.794;8.326;2022-08-19T05:06:14;99532.72;;;20.05;100.00
5484;BME280;2764;48.794;8.326;2022-08-19T05:07:16;99536.78;;;20.09;100.00
5484;BME280;2764;48.794;8.326;2022-08-19T05:08:21;99532.78;;;20.14;100.00
5484;BME280;2764;48.794;8.326;2022-08-19T05:09:32;99528.28;;;20.15;100.00
5484;BME280;2764;48.794;8.326;2022-08-19T05:10:53;99533.94;;;20.21;100.00
5484;BME280;2764;48.794;8.326;2022-08-19T05:11:55;99535.50;;;20.24;100.00
5484;BME280;2764;48.794;8.326;2022-08-19T05:12:56;99534.38;;;20.26;100.00
5484;BME280;2764;48.794;8.326;2022-08-19T05:13:59;99535.22;;;20.27;100.00
5484;BME280;2764;48.794;8.326;2022-08-19T05:15:04;99529.22;;;20.25;100.00
5484;BME280;2764;48.794;8.326;2022-08-19T05:16:07;99537.88;;;20.27;100.00
5484;BME280;2764;48.794;8.326;2022-08-19T05:17:08;99537.03;;;20.26;100.00
5484;BME280;2764;48.794;8.326;2022-08-19T05:18:28;99541.00;;;20.32;100.00
5484;BME280;2764;48.794;8.326;2022-08-19T05:19:48;99541.56;;;20.36;100.00
5484;BME280;2764;48.794;8.326;2022-08-19T05:21:10;99537.69;;;20.40;100.00
5484;BME280;2764;48.794;8.326;2022-08-19T05:22:30;99541.16;;;20.40;100.00
5484;BME280;2764;48.794;8.326;2022-08-19T05:23:38;99550.28;;;20.47;100.00
5484;BME280;2764;48.794;8.326;2022-08-19T05:24:40;99558.13;;;20.49;100.00
5484;BME280;2764;48.794;8.326;2022-08-19T05:26:02;99548.91;;;20.53;100.00
5484;BME280;2764;48.794;8.326;2022-08-19T05:27:04;99518.63;;;20.35;100.00
5484;BME280;2764;48.794;8.326;2022-08-19T05:28:06;99555.22;;;20.61;100.00
5484;BME280;2764;48.794;8.326;2022-08-19T05:29:09;99562.94;;;20.64;100.00
5484;BME280;2764;48.794;8.326;2022-08-19T05:30:11;99556.22;;;20.60;100.00
5484;BME280;2764;48.794;8.326;2022-08-19T05:31:13;99563.66;;;20.66;100.00
5484;BME280;2764;48.794;8.326;2022-08-19T05:32:15;99559.28;;;20.65;100.00
5484;BME280;2764;48.794;8.326;2022-08-19T05:33:18;99564.09;;;20.71;100.00
5484;BME280;2764;48.794;8.326;2022-08-19T05:34:21;99573.47;;;20.75;100.00
5484;BME280;2764;48.794;8.326;2022-08-19T05:35:24;99573.59;;;20.74;100.00
5484;BME280;2764;48.794;8.326;2022-08-19T05:36:27;99569.50;;;20.70;100.00
5484;BME280;2764;48.794;8.326;2022-08-19T05:37:29;99566.75;;;20.71;100.00
5484;BME280;2764;48.794;8.326;2022-08-19T05:38:34;99581.44;;;20.75;100.00
5484;BME280;2764;48.794;8.326;2022-08-19T05:39:37;99581.28;;;20.77;100.00
5484;BME280;2764;48.794;8.326;2022-08-19T05:40:39;99577.53;;;20.79;100.00
5484;BME280;2764;48.794;8.326;2022-08-19T05:41:43;99581.19;;;20.78;100.00
5484;BME280;2764;48.794;8.326;2022-08-19T05:42:44;99583.94;;;20.77;100.00
5484;BME280;2764;48.794;8.326;2022-08-19T05:44:01;99580.88;;;20.72;100.00
5484;BME280;2764;48.794;8.326;2022-08-19T05:45:04;99580.03;;;20.71;100.00
5484;BME280;2764;48.794;8.326;2022-08-19T05:46:06;99591.50;;;20.72;100.00
5484;BME280;2764;48.794;8.326;2022-08-19T05:47:08;99584.25;;;20.74;100.00
5484;BME280;2764;48.794;8.326;2022-08-19T05:48:10;99584.34;;;20.72;100.00
5484;BME280;2764;48.794;8.326;2022-08-19T05:49:13;99592.78;;;20.77;100.00